createdAt,value
2022-08-28T00:00:10.038Z,100123.81
2022-08-28T00:02:40.308Z,100127.09
2022-08-28T00:05:11.904Z,100126.69
2022-08-28T00:07:44.306Z,100132.06
2022-08-28T00:10:16.895Z,100135.19
2022-08-28T00:12:47.057Z,100137.06
2022-08-28T00:15:25.305Z,100135.19
2022-08-28T00:17:55.197Z,100139.88
2022-08-28T00:20:24.644Z,100135.63
2022-08-28T00:22:55.586Z,100142.16
2022-08-28T00:25:27.813Z,100147.34
2022-08-28T00:27:59.645Z,100148.06
2022-08-28T00:30:31.988Z,100157.66
2022-08-28T00:33:05.417Z,100158.44
2022-08-28T00:35:34.491Z,100157.81
2022-08-28T00:38:03.050Z,100165.47
2022-08-28T00:40:33.143Z,100162.72
2022-08-28T00:43:05.812Z,100160.19
2022-08-28T00:45:39.617Z,100162.28
2022-08-28T00:48:09.936Z,100164.91
2022-08-28T00:50:52.477Z,100161.06
2022-08-28T00:53:23.471Z,100159.94
2022-08-28T00:55:55.498Z,100158.63
2022-08-28T00:58:23.966Z,100158.34
2022-08-28T01:00:52.453Z,100160.06
2022-08-28T01:03:26.421Z,100160.22
2022-08-28T01:05:55.274Z,100158.00
2022-08-28T01:08:23.727Z,100148.41
2022-08-28T01:10:56.991Z,100160.63
2022-08-28T01:13:26.935Z,100153.16
2022-08-28T01:15:58.152Z,100154.09
2022-08-28T01:18:29.963Z,100150.25
2022-08-28T01:21:09.608Z,100148.13
2022-08-28T01:23:59.836Z,100152.81
2022-08-28T01:26:29.815Z,100143.44
2022-08-28T01:29:00.016Z,100152.13
2022-08-28T01:31:31.494Z,100154.94
2022-08-28T01:34:00.874Z,100150.38
2022-08-28T01:36:32.238Z,100144.84
2022-08-28T01:39:07.995Z,100142.44
2022-08-28T01:41:40.052Z,100148.31
2022-08-28T01:44:08.889Z,100145.03
2022-08-28T01:46:37.555Z,100142.41
2022-08-28T01:49:08.950Z,100141.28
2022-08-28T01:51:38.090Z,100139.13
2022-08-28T01:54:08.956Z,100145.41
2022-08-28T01:56:39.463Z,100143.06
2022-08-28T01:59:12.760Z,100136.38
2022-08-28T02:01:42.996Z,100144.56
2022-08-28T02:04:11.989Z,100149.25
2022-08-28T02:06:41.295Z,100140.31
2022-08-28T02:09:14.796Z,100142.00
2022-08-28T02:11:46.533Z,100154.22
2022-08-28T02:14:15.944Z,100144.00
2022-08-28T02:16:44.335Z,100148.97
2022-08-28T02:19:13.246Z,100153.25
2022-08-28T02:21:42.540Z,100148.97
2022-08-28T02:24:12.356Z,100148.97
2022-08-28T02:26:40.897Z,100145.16
2022-08-28T02:29:09.302Z,100150.38
2022-08-28T02:31:38.078Z,100148.47
2022-08-28T02:34:06.953Z,100153.31
2022-08-28T02:36:35.367Z,100152.81
2022-08-28T02:39:03.823Z,100151.63
2022-08-28T02:41:33.600Z,100157.59
2022-08-28T02:44:01.985Z,100162.19
2022-08-28T02:46:30.779Z,100152.19
2022-08-28T02:48:59.208Z,100159.22
2022-08-28T02:51:27.670Z,100156.34
2022-08-28T02:53:56.345Z,100153.63
2022-08-28T02:56:24.744Z,100159.03
2022-08-28T02:58:54.592Z,100153.03
2022-08-28T03:01:25.160Z,100157.66
2022-08-28T03:03:53.779Z,100159.06
2022-08-28T03:06:23.055Z,100154.53
2022-08-28T03:08:51.746Z,100155.25
2022-08-28T03:11:20.153Z,100151.25
2022-08-28T03:13:48.663Z,100150.97
2022-08-28T03:16:19.641Z,100157.94
2022-08-28T03:18:48.296Z,100153.34
2022-08-28T03:21:16.637Z,100154.72
2022-08-28T03:23:45.086Z,100160.56
2022-08-28T03:26:17.172Z,100151.94
2022-08-28T03:28:48.848Z,100158.16
2022-08-28T03:31:21.279Z,100158.50
2022-08-28T03:33:50.065Z,100154.09
2022-08-28T03:36:22.546Z,100155.16
2022-08-28T03:38:51.796Z,100161.59
2022-08-28T03:41:23.345Z,100162.97
2022-08-28T03:43:52.182Z,100169.91
2022-08-28T03:46:24.113Z,100166.31
2022-08-28T03:48:53.634Z,100168.56
2022-08-28T03:51:27.986Z,100164.66
2022-08-28T03:53:58.963Z,100163.22
2022-08-28T03:56:30.386Z,100163.13
2022-08-28T03:59:02.669Z,100163.97
2022-08-28T04:01:33.519Z,100165.69
2022-08-28T04:04:02.089Z,100171.13
2022-08-28T04:06:30.449Z,100168.59
2022-08-28T04:09:00.332Z,100165.75
2022-08-28T04:11:29.065Z,100165.03
2022-08-28T04:13:58.089Z,100170.16
2022-08-28T04:16:27.884Z,100169.88
2022-08-28T04:18:59.156Z,100174.34
2022-08-28T04:21:28.068Z,100175.13
2022-08-28T04:23:57.060Z,100173.69
2022-08-28T04:26:27.948Z,100174.03
2022-08-28T04:28:57.089Z,100177.63
2022-08-28T04:31:31.935Z,100176.97
2022-08-28T04:34:05.004Z,100182.63
2022-08-28T04:36:34.646Z,100183.47
2022-08-28T04:39:05.308Z,100182.50
2022-08-28T04:41:34.328Z,100190.19
2022-08-28T04:44:02.715Z,100186.50
2022-08-28T04:46:31.427Z,100182.50
2022-08-28T04:49:00.586Z,100188.19
2022-08-28T04:51:30.481Z,100187.19
2022-08-28T04:54:00.165Z,100196.56
2022-08-28T04:56:28.627Z,100187.75
2022-08-28T04:58:57.049Z,100192.22
2022-08-28T05:01:26.872Z,100194.00
2022-08-28T05:03:58.777Z,100186.91
2022-08-28T05:06:30.044Z,100194.97
2022-08-28T05:09:00.377Z,100194.09
2022-08-28T05:11:34.615Z,100196.94
2022-08-28T05:14:05.524Z,100203.53
2022-08-28T05:16:34.722Z,100198.78
2022-08-28T05:19:04.427Z,100203.53
2022-08-28T05:21:34.199Z,100208.78
2022-08-28T05:24:02.616Z,100215.72
2022-08-28T05:26:31.192Z,100208.38
2022-08-28T05:29:00.922Z,100214.03
2022-08-28T05:31:32.009Z,100219.34
2022-08-28T05:34:02.707Z,100227.69
2022-08-28T05:36:36.744Z,100226.13
2022-08-28T05:39:07.989Z,100237.09
2022-08-28T05:41:37.214Z,100240.19
2022-08-28T05:44:08.845Z,100245.44
2022-08-28T05:46:40.455Z,100253.53
2022-08-28T05:49:10.559Z,100258.16
2022-08-28T05:51:42.052Z,100255.16
2022-08-28T05:54:11.002Z,100252.28
2022-08-28T05:56:42.078Z,100247.16
2022-08-28T05:59:12.413Z,100255.25
2022-08-28T06:01:43.669Z,100247.56
2022-08-28T06:04:15.332Z,100252.72
2022-08-28T06:06:46.800Z,100253.56
2022-08-28T06:09:19.213Z,100256.03
2022-08-28T06:11:48.894Z,100261.56
2022-08-28T06:14:21.719Z,100261.97
2022-08-28T06:16:53.855Z,100250.38
2022-08-28T06:19:25.562Z,100248.50
2022-08-28T06:21:58.771Z,100248.50
2022-08-28T06:24:28.716Z,100247.84
2022-08-28T06:26:58.759Z,100251.38
2022-08-28T06:29:29.275Z,100255.91
2022-08-28T06:32:00.987Z,100260.13
2022-08-28T06:34:30.455Z,100258.47
2022-08-28T06:37:00.725Z,100257.06
2022-08-28T06:39:29.302Z,100257.53
2022-08-28T06:41:57.687Z,100258.34
2022-08-28T06:44:26.283Z,100265.53
2022-08-28T06:46:55.853Z,100265.28
2022-08-28T06:49:24.418Z,100268.63
2022-08-28T06:51:52.984Z,100271.84
2022-08-28T06:54:23.619Z,100275.88
2022-08-28T06:56:53.249Z,100272.13
2022-08-28T06:59:21.813Z,100268.06
2022-08-28T07:01:53.645Z,100270.22
2022-08-28T07:04:22.250Z,100275.91
2022-08-28T07:06:54.066Z,100276.31
2022-08-28T07:09:25.221Z,100271.63
2022-08-28T07:11:54.681Z,100274.66
2022-08-28T07:14:23.324Z,100281.38
2022-08-28T07:16:54.313Z,100276.75
2022-08-28T07:19:22.741Z,100276.66
2022-08-28T07:21:51.160Z,100285.66
2022-08-28T07:24:20.427Z,100285.66
2022-08-28T07:26:50.300Z,100283.13
2022-08-28T07:29:19.850Z,100280.81
2022-08-28T07:31:52.419Z,100280.69
2022-08-28T07:34:27.098Z,100278.53
2022-08-28T07:36:56.367Z,100281.66
2022-08-28T07:39:25.228Z,100281.81
2022-08-28T07:41:55.051Z,100282.66
2022-08-28T07:44:40.805Z,100288.94
2022-08-28T07:47:11.538Z,100287.69
2022-08-28T07:49:41.731Z,100291.50
2022-08-28T07:52:11.391Z,100301.50
2022-08-28T07:54:40.696Z,100297.69
2022-08-28T07:57:11.241Z,100295.72
2022-08-28T07:59:41.137Z,100302.31
2022-08-28T08:02:11.719Z,100301.31
2022-08-28T08:04:40.539Z,100303.56
2022-08-28T08:07:08.954Z,100304.53
2022-08-28T08:09:40.293Z,100310.44
2022-08-28T08:12:10.691Z,100304.91
2022-08-28T08:14:40.236Z,100306.06
2022-08-28T08:17:09.414Z,100307.44
2022-08-28T08:19:38.657Z,100307.00
2022-08-28T08:22:07.247Z,100312.91
2022-08-28T08:24:35.790Z,100319.94
2022-08-28T08:27:06.658Z,100327.25
2022-08-28T08:29:39.466Z,100319.94
2022-08-28T08:32:11.269Z,100322.25
2022-08-28T08:34:42.382Z,100321.94
2022-08-28T08:37:12.710Z,100334.03
2022-08-28T08:39:43.716Z,100326.75
2022-08-28T08:42:23.465Z,100319.78
2022-08-28T08:44:55.715Z,100321.97
2022-08-28T08:47:33.639Z,100322.34
2022-08-28T08:50:06.605Z,100332.97
2022-08-28T08:52:56.572Z,100331.59
2022-08-28T08:55:29.135Z,100321.53
2022-08-28T08:58:04.827Z,100323.94
2022-08-28T09:00:41.473Z,100325.88
2022-08-28T09:03:17.334Z,100329.47
2022-08-28T09:05:53.401Z,100322.25
2022-08-28T09:08:33.840Z,100320.75
2022-08-28T09:11:16.501Z,100322.00
2022-08-28T09:13:55.047Z,100326.97
2022-08-28T09:16:33.208Z,100332.41
2022-08-28T09:19:02.966Z,100335.88
2022-08-28T09:21:34.767Z,100330.13
2022-08-28T09:24:10.838Z,100333.63
2022-08-28T09:26:41.436Z,100326.25
2022-08-28T09:29:18.967Z,100331.66
2022-08-28T09:31:49.936Z,100321.50
2022-08-28T09:34:24.084Z,100332.78
2022-08-28T09:36:53.691Z,100328.28
2022-08-28T09:39:24.804Z,100329.59
2022-08-28T09:42:26.143Z,100339.41
2022-08-28T09:45:00.591Z,100341.28
2022-08-28T09:47:48.682Z,100336.13
2022-08-28T09:50:42.444Z,100337.81
2022-08-28T09:53:20.958Z,100341.44
2022-08-28T09:56:01.197Z,100337.09
2022-08-28T09:58:37.346Z,100341.06
2022-08-28T10:01:33.386Z,100339.84
2022-08-28T10:04:21.043Z,100334.66
2022-08-28T10:06:56.356Z,100336.75
2022-08-28T10:09:33.772Z,100340.06
2022-08-28T10:12:12.421Z,100339.84
2022-08-28T10:14:56.432Z,100328.81
2022-08-28T10:17:35.050Z,100329.63
2022-08-28T10:20:19.439Z,100330.06
2022-08-28T10:23:00.714Z,100336.81
2022-08-28T10:25:40.127Z,100327.97
2022-08-28T10:28:29.298Z,100327.72
2022-08-28T10:31:11.424Z,100324.81
2022-08-28T10:33:58.768Z,100322.84
2022-08-28T10:36:34.689Z,100316.84
2022-08-28T10:39:21.332Z,100326.72
2022-08-28T10:41:56.596Z,100326.72
2022-08-28T10:44:31.327Z,100326.53
2022-08-28T10:47:00.073Z,100323.91
2022-08-28T10:49:36.909Z,100329.94
2022-08-28T10:52:10.289Z,100323.88
2022-08-28T10:54:45.421Z,100328.72
2022-08-28T10:57:29.355Z,100325.78
2022-08-28T10:59:58.539Z,100322.84
2022-08-28T11:02:29.512Z,100322.66
2022-08-28T11:04:59.003Z,100315.03
2022-08-28T11:07:35.852Z,100324.88
2022-08-28T11:10:48.586Z,100311.91
2022-08-28T11:13:45.065Z,100319.81
2022-08-28T11:16:21.066Z,100317.25
2022-08-28T11:19:33.539Z,100317.72
2022-08-28T11:22:10.923Z,100325.72
2022-08-28T11:24:51.000Z,100322.63
2022-08-28T11:27:27.022Z,100316.25
2022-08-28T11:30:28.747Z,100319.56
2022-08-28T11:33:10.014Z,100316.72
2022-08-28T11:35:53.520Z,100330.00
2022-08-28T11:39:05.256Z,100318.69
2022-08-28T11:41:39.068Z,100313.72
2022-08-28T11:44:28.754Z,100311.38
2022-08-28T11:47:38.610Z,100306.38
2022-08-28T11:50:23.160Z,100306.88
2022-08-28T11:53:36.179Z,100310.53
2022-08-28T11:56:39.355Z,100308.66
2022-08-28T11:59:36.300Z,100305.28
2022-08-28T12:02:49.618Z,100311.44
2022-08-28T12:05:45.609Z,100309.44
2022-08-28T12:08:53.328Z,100306.09
2022-08-28T12:11:56.885Z,100293.19
2022-08-28T12:15:11.554Z,100301.34
2022-08-28T12:17:55.371Z,100298.66
2022-08-28T12:20:58.946Z,100293.28
2022-08-28T12:23:41.922Z,100290.09
2022-08-28T12:26:21.570Z,100294.75
2022-08-28T12:28:55.706Z,100287.31
2022-08-28T12:32:15.151Z,100294.97
2022-08-28T12:35:18.192Z,100290.53
2022-08-28T12:37:53.121Z,100282.09
2022-08-28T12:40:25.350Z,100288.88
2022-08-28T12:42:57.116Z,100282.72
2022-08-28T12:45:33.091Z,100291.38
2022-08-28T12:48:06.616Z,100284.13
2022-08-28T12:50:39.365Z,100290.53
2022-08-28T12:53:16.454Z,100281.28
2022-08-28T12:55:46.918Z,100276.72
2022-08-28T12:58:28.837Z,100283.41
2022-08-28T13:01:01.149Z,100275.09
2022-08-28T13:03:30.411Z,100277.63
2022-08-28T13:06:05.063Z,100270.97
2022-08-28T13:08:36.830Z,100272.78
2022-08-28T13:11:05.847Z,100261.91
2022-08-28T13:13:38.463Z,100261.69
2022-08-28T13:16:10.466Z,100262.97
2022-08-28T13:18:52.658Z,100263.28
2022-08-28T13:21:35.337Z,100268.06
2022-08-28T13:24:27.981Z,100266.03
2022-08-28T13:27:07.666Z,100252.41
2022-08-28T13:29:37.314Z,100262.22
2022-08-28T13:32:11.082Z,100256.91
2022-08-28T13:34:48.037Z,100247.78
2022-08-28T13:37:46.653Z,100249.63
2022-08-28T13:40:45.867Z,100248.25
2022-08-28T13:43:11.502Z,100253.72
2022-08-28T13:45:44.628Z,100243.78
2022-08-28T13:48:17.986Z,100247.66
2022-08-28T13:50:51.406Z,100243.84
2022-08-28T13:53:21.458Z,100233.75
2022-08-28T13:55:51.894Z,100242.09
2022-08-28T13:58:20.448Z,100238.47
2022-08-28T14:00:51.173Z,100240.88
2022-08-28T14:03:41.283Z,100243.78
2022-08-28T14:06:12.606Z,100233.03
2022-08-28T14:08:43.387Z,100243.00
2022-08-28T14:11:13.898Z,100240.88
2022-08-28T14:13:47.444Z,100237.53
2022-08-28T14:16:25.635Z,100247.03
2022-08-28T14:18:55.646Z,100245.66
2022-08-28T14:21:25.283Z,100250.53
2022-08-28T14:23:53.819Z,100244.16
2022-08-28T14:26:22.470Z,100245.28
2022-08-28T14:28:50.961Z,100246.53
2022-08-28T14:31:19.497Z,100241.22
2022-08-28T14:33:48.219Z,100236.56
2022-08-28T14:36:20.295Z,100238.06
2022-08-28T14:38:52.671Z,100240.06
2022-08-28T14:41:23.080Z,100240.72
2022-08-28T14:43:52.163Z,100241.13
2022-08-28T14:46:23.570Z,100240.13
2022-08-28T14:48:52.572Z,100232.25
2022-08-28T14:51:22.360Z,100237.94
2022-08-28T14:53:51.409Z,100233.31
2022-08-28T14:56:20.899Z,100234.38
2022-08-28T14:58:49.647Z,100231.44
2022-08-28T15:01:25.417Z,100237.16
2022-08-28T15:04:06.186Z,100237.53
2022-08-28T15:06:36.776Z,100228.94
2022-08-28T15:09:05.734Z,100227.91
2022-08-28T15:11:35.423Z,100224.63
2022-08-28T15:14:04.117Z,100230.31
2022-08-28T15:16:35.046Z,100229.44
2022-08-28T15:19:04.364Z,100221.34
2022-08-28T15:21:38.402Z,100226.41
2022-08-28T15:24:09.673Z,100225.09
2022-08-28T15:26:40.153Z,100218.66
2022-08-28T15:29:10.776Z,100224.41
2022-08-28T15:31:42.395Z,100224.25
2022-08-28T15:34:14.055Z,100221.44
2022-08-28T15:36:45.205Z,100228.38
2022-08-28T15:39:41.415Z,100211.03
2022-08-28T15:42:11.546Z,100210.59
2022-08-28T15:44:40.309Z,100212.13
2022-08-28T15:47:08.931Z,100199.38
2022-08-28T15:49:48.579Z,100209.84
2022-08-28T15:52:20.535Z,100210.38
2022-08-28T15:54:49.984Z,100213.72
2022-08-28T15:57:19.692Z,100218.06
2022-08-28T15:59:50.363Z,100217.97
2022-08-28T16:02:20.444Z,100216.06
2022-08-28T16:04:49.087Z,100210.53
2022-08-28T16:07:19.817Z,100216.28
2022-08-28T16:09:48.896Z,100218.41
2022-08-28T16:12:17.528Z,100217.63
2022-08-28T16:14:46.177Z,100220.09
2022-08-28T16:17:14.895Z,100215.31
2022-08-28T16:19:44.450Z,100220.41
2022-08-28T16:22:16.640Z,100213.41
2022-08-28T16:24:47.455Z,100216.28
2022-08-28T16:27:16.655Z,100213.09
2022-08-28T16:29:45.910Z,100214.38
2022-08-28T16:32:14.764Z,100208.75
2022-08-28T16:34:44.905Z,100221.06
2022-08-28T16:37:18.547Z,100210.75
2022-08-28T16:39:49.668Z,100216.50
2022-08-28T16:42:18.283Z,100212.44
2022-08-28T16:44:46.887Z,100218.59
2022-08-28T16:47:15.746Z,100224.88
2022-08-28T16:49:44.206Z,100216.47
2022-08-28T16:52:12.720Z,100212.00
2022-08-28T16:54:48.694Z,100211.69
2022-08-28T16:57:19.337Z,100218.59
2022-08-28T16:59:48.062Z,100214.38
2022-08-28T17:02:26.288Z,100224.25
2022-08-28T17:04:58.168Z,100213.94
2022-08-28T17:07:26.587Z,100216.72
2022-08-28T17:09:55.154Z,100216.94
2022-08-28T17:12:25.173Z,100216.41
2022-08-28T17:14:53.532Z,100225.41
2022-08-28T17:17:22.025Z,100215.22
2022-08-28T17:19:50.459Z,100214.34
2022-08-28T17:22:33.132Z,100211.06
2022-08-28T17:25:03.458Z,100219.47
2022-08-28T17:27:33.312Z,100211.94
2022-08-28T17:30:04.845Z,100216.59
2022-08-28T17:32:33.466Z,100216.91
2022-08-28T17:35:02.250Z,100218.13
2022-08-28T17:37:31.789Z,100217.38
2022-08-28T17:40:00.474Z,100216.84
2022-08-28T17:42:29.038Z,100222.34
2022-08-28T17:44:58.815Z,100222.97
2022-08-28T17:47:27.226Z,100230.38
2022-08-28T17:50:00.718Z,100227.22
2022-08-28T17:52:29.853Z,100229.59
2022-08-28T17:54:58.701Z,100235.19
2022-08-28T17:57:28.743Z,100238.03
2022-08-28T17:59:59.120Z,100241.94
2022-08-28T18:02:28.680Z,100239.81
2022-08-28T18:04:57.260Z,100247.19
2022-08-28T18:07:25.756Z,100243.78
2022-08-28T18:09:54.862Z,100251.47
2022-08-28T18:12:23.362Z,100250.69
2022-08-28T18:14:51.988Z,100250.13
2022-08-28T18:17:21.846Z,100256.59
2022-08-28T18:19:50.792Z,100254.22
2022-08-28T18:22:19.433Z,100259.91
2022-08-28T18:24:52.497Z,100262.09
2022-08-28T18:27:22.103Z,100266.63
2022-08-28T18:29:50.633Z,100262.56
2022-08-28T18:32:19.223Z,100270.59
2022-08-28T18:34:49.081Z,100266.34
2022-08-28T18:37:17.791Z,100272.97
2022-08-28T18:39:46.377Z,100278.44
2022-08-28T18:42:14.905Z,100280.34
2022-08-28T18:44:43.378Z,100280.50
2022-08-28T18:47:11.867Z,100282.75
2022-08-28T18:49:42.163Z,100281.22
2022-08-28T18:52:12.518Z,100288.00
2022-08-28T18:54:41.027Z,100288.78
2022-08-28T18:57:11.623Z,100299.16
2022-08-28T18:59:40.697Z,100303.09
2022-08-28T19:02:09.188Z,100312.00
2022-08-28T19:04:39.733Z,100322.66
2022-08-28T19:07:08.155Z,100319.44
2022-08-28T19:09:38.143Z,100321.41
2022-08-28T19:12:07.587Z,100320.06
2022-08-28T19:14:37.202Z,100327.41
2022-08-28T19:17:05.743Z,100324.94
2022-08-28T19:19:34.731Z,100334.94
2022-08-28T19:22:03.224Z,100329.81
2022-08-28T19:24:33.764Z,100338.69
2022-08-28T19:27:03.817Z,100346.19
2022-08-28T19:29:32.413Z,100343.63
2022-08-28T19:32:01.101Z,100348.56
2022-08-28T19:34:29.901Z,100347.38
2022-08-28T19:36:58.406Z,100353.59
2022-08-28T19:39:27.749Z,100352.31
2022-08-28T19:41:56.996Z,100362.19
2022-08-28T19:44:26.967Z,100365.00
2022-08-28T19:46:55.412Z,100362.53
2022-08-28T19:49:23.903Z,100374.97
2022-08-28T19:51:52.271Z,100378.88
2022-08-28T19:54:20.829Z,100384.16
2022-08-28T19:56:52.583Z,100389.59
2022-08-28T19:59:26.512Z,100388.06
2022-08-28T20:01:56.990Z,100394.28
2022-08-28T20:04:26.103Z,100392.97
2022-08-28T20:06:54.610Z,100395.56
2022-08-28T20:09:24.336Z,100392.53
2022-08-28T20:11:53.154Z,100396.50
2022-08-28T20:14:22.654Z,100400.53
2022-08-28T20:16:54.412Z,100398.66
2022-08-28T20:19:24.881Z,100398.97
2022-08-28T20:21:53.667Z,100408.28
2022-08-28T20:24:24.988Z,100409.00
2022-08-28T20:26:54.622Z,100403.25
2022-08-28T20:29:24.323Z,100413.13
2022-08-28T20:31:54.225Z,100409.22
2022-08-28T20:34:24.346Z,100409.69
2022-08-28T20:36:54.120Z,100406.13
2022-08-28T20:39:23.412Z,100409.75
2022-08-28T20:41:51.993Z,100409.28
2022-08-28T20:44:21.814Z,100414.81
2022-08-28T20:46:51.387Z,100410.59
2022-08-28T20:49:24.110Z,100412.59
2022-08-28T20:51:57.606Z,100423.06
2022-08-28T20:54:30.559Z,100413.31
2022-08-28T20:57:03.018Z,100417.28
2022-08-28T20:59:39.341Z,100415.56
2022-08-28T21:02:12.383Z,100423.13
2022-08-28T21:04:44.063Z,100425.16
2022-08-28T21:07:13.718Z,100423.44
2022-08-28T21:10:06.643Z,100426.56
2022-08-28T21:12:31.524Z,100428.72
2022-08-28T21:15:00.124Z,100433.84
2022-08-28T21:17:29.839Z,100433.97
2022-08-28T21:20:03.146Z,100445.09
2022-08-28T21:22:35.240Z,100442.81
2022-08-28T21:25:05.284Z,100454.00
2022-08-28T21:27:33.814Z,100451.66
2022-08-28T21:30:03.164Z,100456.41
2022-08-28T21:32:32.715Z,100458.91
2022-08-28T21:35:03.014Z,100452.94
2022-08-28T21:37:31.779Z,100466.28
2022-08-28T21:40:01.161Z,100457.13
2022-08-28T21:42:30.256Z,100468.78
2022-08-28T21:44:58.670Z,100465.56
2022-08-28T21:47:27.175Z,100463.84
2022-08-28T21:49:58.055Z,100459.16
2022-08-28T21:52:31.843Z,100458.00
2022-08-28T21:55:03.668Z,100466.56
2022-08-28T21:57:32.232Z,100464.19
2022-08-28T22:00:00.784Z,100469.00
2022-08-28T22:02:29.642Z,100464.16
2022-08-28T22:04:58.263Z,100481.69
2022-08-28T22:07:28.098Z,100475.41
2022-08-28T22:09:57.007Z,100470.81
2022-08-28T22:12:25.471Z,100476.03
2022-08-28T22:14:54.222Z,100478.78
2022-08-28T22:17:22.819Z,100474.13
2022-08-28T22:19:51.381Z,100475.03
2022-08-28T22:22:37.802Z,100477.41
2022-08-28T22:25:09.049Z,100486.88
2022-08-28T22:27:37.727Z,100470.16
2022-08-28T22:30:07.386Z,100476.09
2022-08-28T22:32:35.837Z,100474.44
2022-08-28T22:35:04.721Z,100478.19
2022-08-28T22:37:35.865Z,100477.47
2022-08-28T22:40:12.948Z,100471.13
2022-08-28T22:42:43.718Z,100477.19
2022-08-28T22:45:12.651Z,100474.59
2022-08-28T22:47:41.119Z,100478.31
2022-08-28T22:50:11.022Z,100482.81
2022-08-28T22:52:39.882Z,100470.59
2022-08-28T22:55:12.377Z,100475.50
2022-08-28T22:57:42.987Z,100479.31
2022-08-28T23:00:15.855Z,100474.06
2022-08-28T23:02:45.260Z,100477.50
2022-08-28T23:05:14.014Z,100473.97
2022-08-28T23:07:43.153Z,100478.91
2022-08-28T23:10:12.706Z,100483.94
2022-08-28T23:12:42.680Z,100481.75
2022-08-28T23:15:16.197Z,100486.06
2022-08-28T23:17:46.234Z,100481.47
2022-08-28T23:20:18.681Z,100481.34
2022-08-28T23:22:47.433Z,100482.38
2022-08-28T23:25:19.586Z,100473.44
2022-08-28T23:27:50.765Z,100477.72
2022-08-28T23:30:20.564Z,100483.34
2022-08-28T23:32:48.994Z,100475.28
2022-08-28T23:35:18.722Z,100479.84
2022-08-28T23:37:51.823Z,100481.38
2022-08-28T23:40:23.047Z,100481.75
2022-08-28T23:42:54.081Z,100475.13
2022-08-28T23:45:23.598Z,100482.31
2022-08-28T23:47:52.190Z,100475.41
2022-08-28T23:50:23.934Z,100481.63
2022-08-28T23:52:53.361Z,100475.03
2022-08-28T23:55:22.572Z,100474.94
2022-08-28T23:57:56.980Z,100471.47
